createdAt,value
2023-04-30T00:00:51.793Z,9.56
2023-04-30T00:03:21.721Z,9.73
2023-04-30T00:05:52.359Z,9.45
2023-04-30T00:08:22.386Z,9.44
2023-04-30T00:10:51.896Z,9.60
2023-04-30T00:13:21.770Z,9.66
2023-04-30T00:15:51.856Z,9.70
2023-04-30T00:18:21.421Z,9.51
2023-04-30T00:20:52.883Z,9.52
2023-04-30T00:23:22.770Z,9.52
2023-04-30T00:25:52.578Z,9.41
2023-04-30T00:28:22.458Z,9.38
2023-04-30T00:30:52.003Z,9.31
2023-04-30T00:33:21.901Z,9.37
2023-04-30T00:35:51.767Z,9.42
2023-04-30T00:38:21.541Z,9.39
2023-04-30T00:40:51.417Z,9.42
2023-04-30T00:43:21.235Z,9.32
2023-04-30T00:45:51.058Z,9.28
2023-04-30T00:48:21.517Z,9.26
2023-04-30T00:50:51.348Z,9.32
2023-04-30T00:53:21.915Z,9.36
2023-04-30T00:55:52.569Z,9.44
2023-04-30T00:58:23.423Z,9.33
2023-04-30T01:00:53.446Z,9.19
2023-04-30T01:03:24.092Z,9.43
2023-04-30T01:05:54.133Z,9.43
2023-04-30T01:08:23.795Z,9.27
2023-04-30T01:10:57.103Z,9.15
2023-04-30T01:13:41.593Z,9.12
2023-04-30T01:16:20.720Z,9.17
2023-04-30T01:18:53.754Z,9.21
2023-04-30T01:21:25.006Z,9.22
2023-04-30T01:24:32.103Z,9.24
2023-04-30T01:27:08.282Z,9.05
2023-04-30T01:29:39.667Z,9.09
2023-04-30T01:32:10.956Z,8.99
2023-04-30T01:34:40.856Z,8.98
2023-04-30T01:37:19.072Z,8.94
2023-04-30T01:43:11.754Z,8.86
2023-04-30T01:45:59.206Z,8.92
2023-04-30T01:48:32.137Z,9.07
2023-04-30T01:51:16.841Z,8.77
2023-04-30T01:53:47.552Z,8.80
2023-04-30T01:56:26.777Z,8.63
2023-04-30T01:58:57.619Z,8.67
2023-04-30T02:01:29.885Z,8.67
2023-04-30T02:03:59.869Z,8.67
2023-04-30T02:06:30.257Z,8.61
2023-04-30T02:09:05.054Z,8.64
2023-04-30T02:11:34.918Z,8.47
2023-04-30T02:14:06.706Z,8.59
2023-04-30T02:16:36.545Z,8.47
2023-04-30T02:19:06.731Z,8.47
2023-04-30T02:21:36.644Z,8.51
2023-04-30T02:24:07.335Z,8.47
2023-04-30T02:26:37.176Z,8.47
2023-04-30T02:29:07.344Z,8.33
2023-04-30T02:31:37.234Z,8.33
2023-04-30T02:34:08.166Z,8.29
2023-04-30T02:36:37.981Z,8.19
2023-04-30T02:39:08.958Z,8.19
2023-04-30T02:41:38.908Z,8.20
2023-04-30T02:44:09.777Z,7.98
2023-04-30T02:46:39.576Z,8.02
2023-04-30T02:49:09.718Z,8.03
2023-04-30T02:51:39.567Z,8.05
2023-04-30T02:54:10.271Z,8.02
2023-04-30T02:56:40.627Z,8.12
2023-04-30T02:59:11.031Z,8.09
2023-04-30T03:01:41.185Z,8.00
2023-04-30T03:04:11.145Z,8.12
2023-04-30T03:06:41.586Z,8.04
2023-04-30T03:09:11.118Z,8.10
2023-04-30T03:11:40.901Z,8.11
2023-04-30T03:14:10.920Z,8.13
2023-04-30T03:16:41.321Z,8.11
2023-04-30T03:19:11.579Z,8.08
2023-04-30T03:21:41.806Z,8.02
2023-04-30T03:24:13.245Z,7.94
2023-04-30T03:26:43.317Z,8.11
2023-04-30T03:29:13.248Z,8.07
2023-04-30T03:31:43.151Z,8.07
2023-04-30T03:34:12.988Z,8.06
2023-04-30T03:36:42.959Z,8.03
2023-04-30T03:39:12.839Z,7.86
2023-04-30T03:41:43.174Z,7.98
2023-04-30T03:44:14.611Z,7.91
2023-04-30T03:46:44.464Z,7.94
2023-04-30T03:49:14.312Z,8.08
2023-04-30T03:51:44.407Z,8.00
2023-04-30T03:54:14.167Z,8.02
2023-04-30T03:56:44.334Z,8.06
2023-04-30T03:59:14.431Z,8.09
2023-04-30T04:01:44.459Z,7.96
2023-04-30T04:04:15.971Z,7.98
2023-04-30T04:06:46.548Z,7.87
2023-04-30T04:09:16.350Z,7.87
2023-04-30T04:11:46.310Z,7.92
2023-04-30T04:14:16.508Z,7.94
2023-04-30T04:16:46.761Z,7.81
2023-04-30T04:19:16.658Z,7.78
2023-04-30T04:21:46.728Z,7.85
2023-04-30T04:24:17.196Z,7.87
2023-04-30T04:26:48.093Z,7.94
2023-04-30T04:29:18.097Z,7.86
2023-04-30T04:31:49.283Z,8.03
2023-04-30T04:34:20.144Z,7.92
2023-04-30T04:36:49.950Z,8.03
2023-04-30T04:39:19.774Z,8.00
2023-04-30T04:41:49.878Z,8.09
2023-04-30T04:44:20.220Z,8.05
2023-04-30T04:46:53.394Z,7.86
2023-04-30T04:49:23.196Z,7.84
2023-04-30T04:51:54.464Z,7.88
2023-04-30T04:54:24.312Z,8.01
2023-04-30T04:56:54.120Z,8.04
2023-04-30T04:59:23.913Z,7.93
2023-04-30T05:01:53.770Z,7.93
2023-04-30T05:04:23.509Z,7.96
2023-04-30T05:06:54.569Z,8.01
2023-04-30T05:09:24.739Z,7.92
2023-04-30T05:11:54.561Z,8.03
2023-04-30T05:14:24.244Z,8.28
2023-04-30T05:16:54.061Z,8.28
2023-04-30T05:19:24.028Z,8.28
2023-04-30T05:21:53.834Z,8.34
2023-04-30T05:24:23.377Z,8.30
2023-04-30T05:26:53.202Z,8.53
2023-04-30T05:29:23.020Z,8.70
2023-04-30T05:31:53.338Z,9.02
2023-04-30T05:34:22.924Z,9.17
2023-04-30T05:36:52.873Z,9.16
2023-04-30T05:39:22.679Z,9.55
2023-04-30T05:41:53.469Z,9.48
2023-04-30T05:44:23.169Z,9.68
2023-04-30T05:46:52.969Z,9.97
2023-04-30T05:49:22.795Z,9.87
2023-04-30T05:51:52.627Z,9.87
2023-04-30T05:54:22.182Z,9.98
2023-04-30T05:56:52.001Z,10.02
2023-04-30T05:59:21.831Z,10.06
2023-04-30T06:01:51.444Z,10.06
2023-04-30T06:04:21.116Z,10.05
2023-04-30T06:06:51.042Z,10.26
2023-04-30T06:09:20.678Z,10.30
2023-04-30T06:11:51.957Z,10.16
2023-04-30T06:14:22.737Z,10.27
2023-04-30T06:16:53.645Z,10.44
2023-04-30T06:19:23.587Z,10.70
2023-04-30T06:21:53.446Z,11.12
2023-04-30T06:24:23.043Z,11.12
2023-04-30T06:26:52.917Z,11.27
2023-04-30T06:29:24.405Z,11.64
2023-04-30T06:31:54.368Z,11.79
2023-04-30T06:34:24.226Z,11.96
2023-04-30T06:36:54.088Z,11.91
2023-04-30T06:39:23.902Z,11.92
2023-04-30T06:41:54.021Z,11.96
2023-04-30T06:44:24.126Z,12.01
2023-04-30T06:46:54.748Z,12.09
2023-04-30T06:49:24.676Z,12.39
2023-04-30T06:51:56.092Z,12.28
2023-04-30T06:54:27.681Z,12.28
2023-04-30T06:56:57.533Z,12.69
2023-04-30T06:59:28.418Z,12.88
2023-04-30T07:01:58.294Z,13.18
2023-04-30T07:04:28.317Z,12.74
2023-04-30T07:06:58.184Z,13.19
2023-04-30T07:09:28.903Z,13.19
2023-04-30T07:12:01.667Z,12.79
2023-04-30T07:14:31.836Z,13.14
2023-04-30T07:17:01.743Z,13.06
2023-04-30T07:19:32.458Z,13.21
2023-04-30T07:22:02.525Z,13.55
2023-04-30T07:24:32.614Z,13.91
2023-04-30T07:27:03.848Z,14.41
2023-04-30T07:29:34.152Z,14.09
2023-04-30T07:32:06.621Z,14.37
2023-04-30T07:34:36.454Z,14.18
2023-04-30T07:37:06.283Z,14.70
2023-04-30T07:39:37.376Z,14.68
2023-04-30T07:42:08.688Z,14.92
2023-04-30T07:44:38.576Z,15.26
2023-04-30T07:47:09.902Z,15.41
2023-04-30T07:49:39.768Z,15.67
2023-04-30T07:52:12.425Z,15.61
2023-04-30T07:54:42.216Z,15.47
2023-04-30T07:57:12.966Z,15.79
2023-04-30T07:59:42.755Z,15.87
2023-04-30T08:02:12.732Z,16.07
2023-04-30T08:04:42.687Z,16.28
2023-04-30T08:07:12.542Z,16.60
2023-04-30T08:09:42.567Z,16.93
2023-04-30T08:12:12.153Z,16.82
2023-04-30T08:14:41.995Z,17.26
2023-04-30T08:17:12.087Z,17.07
2023-04-30T08:19:41.885Z,17.20
2023-04-30T08:22:11.789Z,17.15
2023-04-30T08:24:41.590Z,17.49
2023-04-30T08:27:11.390Z,17.33
2023-04-30T08:29:41.201Z,17.38
2023-04-30T08:32:11.496Z,17.36
2023-04-30T08:34:41.622Z,17.72
2023-04-30T08:37:11.759Z,17.39
2023-04-30T08:39:41.544Z,17.39
2023-04-30T08:42:15.210Z,17.50
2023-04-30T08:44:46.618Z,17.85
2023-04-30T08:47:18.839Z,17.85
2023-04-30T08:49:49.050Z,18.19
2023-04-30T08:52:20.688Z,18.04
2023-04-30T08:54:54.130Z,18.26
2023-04-30T08:57:24.291Z,17.90
2023-04-30T08:59:54.964Z,18.20
2023-04-30T09:02:24.959Z,18.11
2023-04-30T09:04:54.824Z,18.24
2023-04-30T09:07:26.832Z,18.09
2023-04-30T09:09:58.017Z,18.47
2023-04-30T09:12:28.345Z,18.40
2023-04-30T09:15:03.477Z,18.06
2023-04-30T09:17:34.273Z,18.57
2023-04-30T09:20:13.426Z,18.49
2023-04-30T09:22:43.857Z,18.67
2023-04-30T09:25:13.883Z,18.82
2023-04-30T09:27:45.947Z,19.11
2023-04-30T09:30:33.670Z,18.85
2023-04-30T09:33:03.855Z,18.46
2023-04-30T09:35:40.074Z,19.20
2023-04-30T09:38:09.077Z,19.20
2023-04-30T09:40:43.028Z,19.18
2023-04-30T09:43:13.257Z,19.18
2023-04-30T09:45:52.798Z,19.34
2023-04-30T09:48:28.587Z,19.53
2023-04-30T09:50:58.499Z,19.72
2023-04-30T09:53:29.116Z,19.90
2023-04-30T09:56:01.398Z,20.19
2023-04-30T09:58:33.665Z,19.91
2023-04-30T10:01:11.097Z,19.48
2023-04-30T10:03:43.693Z,19.52
2023-04-30T10:06:19.195Z,19.71
2023-04-30T10:08:58.264Z,19.64
2023-04-30T10:11:31.068Z,19.93
2023-04-30T10:14:16.193Z,19.64
2023-04-30T10:16:51.802Z,19.65
2023-04-30T10:19:26.815Z,19.57
2023-04-30T10:21:56.870Z,19.77
2023-04-30T10:24:26.525Z,20.13
2023-04-30T10:26:57.264Z,19.85
2023-04-30T10:29:27.074Z,20.18
2023-04-30T10:31:58.745Z,20.80
2023-04-30T10:35:02.772Z,20.80
2023-04-30T10:37:41.391Z,20.57
2023-04-30T10:40:14.827Z,20.51
2023-04-30T10:42:51.400Z,20.10
2023-04-30T10:45:38.703Z,19.75
2023-04-30T10:48:11.215Z,19.75
2023-04-30T10:50:46.603Z,20.21
2023-04-30T10:53:22.925Z,20.24
2023-04-30T10:56:01.958Z,20.43
2023-04-30T10:58:34.512Z,20.90
2023-04-30T11:01:15.762Z,20.90
2023-04-30T11:04:05.331Z,20.45
2023-04-30T11:06:57.048Z,20.67
2023-04-30T11:09:40.445Z,21.06
2023-04-30T11:12:23.945Z,21.36
2023-04-30T11:14:53.825Z,20.86
2023-04-30T11:17:25.531Z,20.56
2023-04-30T11:19:57.523Z,20.77
2023-04-30T11:22:33.760Z,21.26
2023-04-30T11:25:09.559Z,21.02
2023-04-30T11:27:42.107Z,21.06
2023-04-30T11:30:16.528Z,21.37
2023-04-30T11:32:48.359Z,21.45
2023-04-30T11:35:19.928Z,21.13
2023-04-30T11:37:50.084Z,21.20
2023-04-30T11:40:20.558Z,21.36
2023-04-30T11:42:50.715Z,21.24
2023-04-30T11:45:22.143Z,21.09
2023-04-30T11:47:54.826Z,20.78
2023-04-30T11:50:30.220Z,21.23
2023-04-30T11:53:05.223Z,21.59
2023-04-30T11:55:34.963Z,21.66
2023-04-30T11:58:07.569Z,21.35
2023-04-30T12:00:38.064Z,20.92
2023-04-30T12:03:08.639Z,21.71
2023-04-30T12:05:40.106Z,21.74
2023-04-30T12:08:11.892Z,21.18
2023-04-30T12:10:42.062Z,20.90
2023-04-30T12:13:16.781Z,20.65
2023-04-30T12:15:49.695Z,21.02
2023-04-30T12:18:19.355Z,21.40
2023-04-30T12:20:49.480Z,21.14
2023-04-30T12:23:20.280Z,21.42
2023-04-30T12:25:50.433Z,21.42
2023-04-30T12:28:19.932Z,21.63
2023-04-30T12:30:49.742Z,22.20
2023-04-30T12:33:19.947Z,21.46
2023-04-30T12:35:51.603Z,21.46
2023-04-30T12:38:22.769Z,22.12
2023-04-30T12:40:52.989Z,21.98
2023-04-30T12:43:23.104Z,21.98
2023-04-30T12:45:57.907Z,21.70
2023-04-30T12:48:27.838Z,21.38
2023-04-30T12:51:02.882Z,21.17
2023-04-30T12:53:33.156Z,21.66
2023-04-30T12:56:10.792Z,21.81
2023-04-30T12:58:40.724Z,21.81
2023-04-30T13:01:15.097Z,22.40
2023-04-30T13:03:45.112Z,22.78
2023-04-30T13:06:15.416Z,22.10
2023-04-30T13:08:57.846Z,22.49
2023-04-30T13:11:18.029Z,22.33
2023-04-30T13:13:47.841Z,22.86
2023-04-30T13:16:17.477Z,22.86
2023-04-30T13:18:47.619Z,21.28
2023-04-30T13:21:17.406Z,21.52
2023-04-30T13:23:52.645Z,21.52
2023-04-30T13:26:18.862Z,22.22
2023-04-30T13:28:48.733Z,21.84
2023-04-30T13:31:18.790Z,21.80
2023-04-30T13:33:48.781Z,21.80
2023-04-30T13:36:18.588Z,21.80
2023-04-30T13:38:48.593Z,21.74
2023-04-30T13:41:18.392Z,21.74
2023-04-30T13:43:48.566Z,21.02
2023-04-30T13:46:18.329Z,21.20
2023-04-30T13:48:49.974Z,21.54
2023-04-30T13:51:20.132Z,21.92
2023-04-30T13:53:49.973Z,22.23
2023-04-30T13:56:19.963Z,22.58
2023-04-30T13:58:49.847Z,22.82
2023-04-30T14:01:19.738Z,22.74
2023-04-30T14:03:49.817Z,21.87
2023-04-30T14:06:19.537Z,22.47
2023-04-30T14:08:49.803Z,22.52
2023-04-30T14:11:19.627Z,23.58
2023-04-30T14:13:49.441Z,23.42
2023-04-30T14:16:19.828Z,23.42
2023-04-30T14:18:49.801Z,23.34
2023-04-30T14:21:19.412Z,23.80
2023-04-30T14:23:49.209Z,23.80
2023-04-30T14:26:19.461Z,22.37
2023-04-30T14:28:50.112Z,22.37
2023-04-30T14:31:19.675Z,22.25
2023-04-30T14:33:49.469Z,22.25
2023-04-30T14:36:19.669Z,22.22
2023-04-30T14:38:49.462Z,21.98
2023-04-30T14:41:19.262Z,22.17
2023-04-30T14:43:49.533Z,21.63
2023-04-30T14:46:19.670Z,21.07
2023-04-30T14:48:49.878Z,21.43
2023-04-30T14:51:19.950Z,21.17
2023-04-30T14:53:49.802Z,20.99
2023-04-30T14:56:19.350Z,20.99
2023-04-30T14:58:49.163Z,21.39
2023-04-30T15:01:18.987Z,22.05
2023-04-30T15:03:48.756Z,21.88
2023-04-30T15:06:18.946Z,21.25
2023-04-30T15:08:48.855Z,21.02
2023-04-30T15:11:18.669Z,20.98
2023-04-30T15:13:48.316Z,20.71
2023-04-30T15:16:18.313Z,20.69
2023-04-30T15:18:48.918Z,20.25
2023-04-30T15:21:18.731Z,20.70
2023-04-30T15:23:50.164Z,20.87
2023-04-30T15:26:20.079Z,20.85
2023-04-30T15:28:49.953Z,21.10
2023-04-30T15:31:19.924Z,21.14
2023-04-30T15:33:49.814Z,21.17
2023-04-30T15:36:21.278Z,21.36
2023-04-30T15:38:51.081Z,21.53
2023-04-30T15:41:21.762Z,21.60
2023-04-30T15:43:51.539Z,22.02
2023-04-30T15:46:21.392Z,22.02
2023-04-30T15:48:51.226Z,22.04
2023-04-30T15:51:21.100Z,21.93
2023-04-30T15:53:50.882Z,22.24
2023-04-30T15:56:22.323Z,22.24
2023-04-30T15:58:52.665Z,21.84
2023-04-30T16:01:23.500Z,21.08
2023-04-30T16:03:53.823Z,21.17
2023-04-30T16:06:23.739Z,21.07
2023-04-30T16:08:53.955Z,21.07
2023-04-30T16:11:24.165Z,21.18
2023-04-30T16:13:54.328Z,21.72
2023-04-30T16:16:25.529Z,21.81
2023-04-30T16:18:55.654Z,21.74
2023-04-30T16:21:25.887Z,22.26
2023-04-30T16:23:55.684Z,22.26
2023-04-30T16:26:25.599Z,22.28
2023-04-30T16:28:55.198Z,22.38
2023-04-30T16:31:25.165Z,22.38
2023-04-30T16:33:55.324Z,22.89
2023-04-30T16:36:25.274Z,21.92
2023-04-30T16:38:55.123Z,21.70
2023-04-30T16:41:25.667Z,21.69
2023-04-30T16:43:55.743Z,21.85
2023-04-30T16:46:25.733Z,21.37
2023-04-30T16:48:55.587Z,21.66
2023-04-30T16:51:27.068Z,21.18
2023-04-30T16:53:56.903Z,21.13
2023-04-30T16:56:27.463Z,21.63
2023-04-30T16:58:57.552Z,21.04
2023-04-30T17:01:28.291Z,20.75
2023-04-30T17:03:58.221Z,21.51
2023-04-30T17:06:27.875Z,21.45
2023-04-30T17:08:58.039Z,21.51
2023-04-30T17:11:28.650Z,21.01
2023-04-30T17:13:58.930Z,21.12
2023-04-30T17:16:28.816Z,21.31
2023-04-30T17:18:58.389Z,21.19
2023-04-30T17:21:29.592Z,21.20
2023-04-30T17:23:59.375Z,21.20
2023-04-30T17:26:29.244Z,20.74
2023-04-30T17:28:59.089Z,20.56
2023-04-30T17:31:32.134Z,20.56
2023-04-30T17:34:01.948Z,21.21
2023-04-30T17:36:31.822Z,20.87
2023-04-30T17:39:03.267Z,20.87
2023-04-30T17:41:33.731Z,21.23
2023-04-30T17:44:03.550Z,20.95
2023-04-30T17:46:33.166Z,20.80
2023-04-30T17:49:04.171Z,20.09
2023-04-30T17:51:34.422Z,19.79
2023-04-30T17:54:05.770Z,19.44
2023-04-30T17:56:36.154Z,19.31
2023-04-30T17:59:06.216Z,18.91
2023-04-30T18:01:36.454Z,19.06
2023-04-30T18:04:09.360Z,18.89
2023-04-30T18:06:39.496Z,18.54
2023-04-30T18:09:09.339Z,18.92
2023-04-30T18:11:39.147Z,18.61
2023-04-30T18:14:11.413Z,18.80
2023-04-30T18:16:41.564Z,18.77
2023-04-30T18:19:11.439Z,18.33
2023-04-30T18:21:41.241Z,18.21
2023-04-30T18:24:11.349Z,18.28
2023-04-30T18:26:41.303Z,18.20
2023-04-30T18:29:11.594Z,18.27
2023-04-30T18:31:41.452Z,18.21
2023-04-30T18:34:11.376Z,18.02
2023-04-30T18:36:44.093Z,18.04
2023-04-30T18:39:13.908Z,17.84
2023-04-30T18:41:44.575Z,17.76
2023-04-30T18:44:14.159Z,17.95
2023-04-30T18:46:43.787Z,17.87
2023-04-30T18:49:13.903Z,17.55
2023-04-30T18:51:43.977Z,17.57
2023-04-30T18:54:14.030Z,17.57
2023-04-30T18:56:45.153Z,17.62
2023-04-30T18:59:14.962Z,17.41
2023-04-30T19:01:44.623Z,17.30
2023-04-30T19:04:15.882Z,17.28
2023-04-30T19:06:47.411Z,17.18
2023-04-30T19:09:17.461Z,16.99
2023-04-30T19:11:47.838Z,16.90
2023-04-30T19:14:17.957Z,17.02
2023-04-30T19:16:47.845Z,16.93
2023-04-30T19:19:17.697Z,16.76
2023-04-30T19:21:47.586Z,16.74
2023-04-30T19:24:17.230Z,16.63
2023-04-30T19:26:47.092Z,16.63
2023-04-30T19:29:16.952Z,16.41
2023-04-30T19:31:46.903Z,16.35
2023-04-30T19:34:16.608Z,16.49
2023-04-30T19:36:46.409Z,16.25
2023-04-30T19:39:16.399Z,16.25
2023-04-30T19:41:46.339Z,16.27
2023-04-30T19:44:20.540Z,16.08
2023-04-30T19:46:50.113Z,16.14
2023-04-30T19:49:19.942Z,15.95
2023-04-30T19:51:49.760Z,15.92
2023-04-30T19:54:19.750Z,16.01
2023-04-30T19:56:52.090Z,15.76
2023-04-30T19:59:21.954Z,15.76
2023-04-30T20:01:53.346Z,15.83
2023-04-30T20:04:23.085Z,15.68
2023-04-30T20:06:54.576Z,15.79
2023-04-30T20:09:24.822Z,15.81
2023-04-30T20:11:55.749Z,15.53
2023-04-30T20:14:25.507Z,15.58
2023-04-30T20:16:56.469Z,15.40
2023-04-30T20:19:26.553Z,15.33
2023-04-30T20:21:56.418Z,15.27
2023-04-30T20:24:26.004Z,15.38
2023-04-30T20:26:55.822Z,15.36
2023-04-30T20:29:25.711Z,15.17
2023-04-30T20:31:55.577Z,15.45
2023-04-30T20:34:25.569Z,15.31
2023-04-30T20:36:55.222Z,15.17
2023-04-30T20:39:24.884Z,15.18
2023-04-30T20:41:54.684Z,14.96
2023-04-30T20:44:25.387Z,14.96
2023-04-30T20:46:55.727Z,14.74
2023-04-30T20:49:27.000Z,14.84
2023-04-30T20:51:56.471Z,14.79
2023-04-30T20:54:26.789Z,14.89
2023-04-30T20:56:56.581Z,14.76
2023-04-30T20:59:26.221Z,14.70
2023-04-30T21:01:55.831Z,14.63
2023-04-30T21:04:25.651Z,14.69
2023-04-30T21:06:56.604Z,14.77
2023-04-30T21:09:26.162Z,14.76
2023-04-30T21:11:55.971Z,14.69
2023-04-30T21:14:25.779Z,14.68
2023-04-30T21:16:56.135Z,14.48
2023-04-30T21:19:25.985Z,14.60
2023-04-30T21:21:57.178Z,14.35
2023-04-30T21:24:26.918Z,14.56
2023-04-30T21:26:57.061Z,14.50
2023-04-30T21:29:27.038Z,14.63
2023-04-30T21:31:56.828Z,14.43
2023-04-30T21:34:26.404Z,14.52
2023-04-30T21:36:56.212Z,14.23
2023-04-30T21:39:26.297Z,14.21
2023-04-30T21:41:56.132Z,14.21
2023-04-30T21:44:25.691Z,14.11
2023-04-30T21:46:55.502Z,14.03
2023-04-30T21:49:26.042Z,14.02
2023-04-30T21:51:55.871Z,13.88
2023-04-30T21:54:25.696Z,13.79
2023-04-30T21:56:55.483Z,14.12
2023-04-30T21:59:25.427Z,13.85
2023-04-30T22:01:55.392Z,13.80
2023-04-30T22:04:25.573Z,13.80
2023-04-30T22:06:55.719Z,13.80
2023-04-30T22:09:25.566Z,13.74
2023-04-30T22:11:55.377Z,13.88
2023-04-30T22:14:25.223Z,13.89
2023-04-30T22:16:55.108Z,13.77
2023-04-30T22:19:24.984Z,13.71
2023-04-30T22:21:54.854Z,13.62
2023-04-30T22:24:24.797Z,13.75
2023-04-30T22:26:54.867Z,13.62
2023-04-30T22:29:24.682Z,13.64
2023-04-30T22:31:54.515Z,13.49
2023-04-30T22:34:25.497Z,13.54
2023-04-30T22:36:55.681Z,13.43
2023-04-30T22:39:25.793Z,13.33
2023-04-30T22:41:55.835Z,13.46
2023-04-30T22:44:26.526Z,13.46
2023-04-30T22:46:58.404Z,13.29
2023-04-30T22:49:31.739Z,13.32
2023-04-30T22:52:01.698Z,13.40
2023-04-30T22:54:32.219Z,13.41
2023-04-30T22:57:02.994Z,13.53
2023-04-30T22:59:33.163Z,13.45
2023-04-30T23:02:02.684Z,13.50
2023-04-30T23:04:36.689Z,13.54
2023-04-30T23:07:06.572Z,13.51
2023-04-30T23:09:36.383Z,13.35
2023-04-30T23:12:08.975Z,13.33
2023-04-30T23:14:38.772Z,13.34
2023-04-30T23:17:08.701Z,13.44
2023-04-30T23:19:38.564Z,13.54
2023-04-30T23:22:10.273Z,13.35
2023-04-30T23:24:41.049Z,13.48
2023-04-30T23:27:11.284Z,13.67
2023-04-30T23:29:41.158Z,13.70
2023-04-30T23:32:11.549Z,13.74
2023-04-30T23:34:41.673Z,13.59
2023-04-30T23:37:11.919Z,13.78
2023-04-30T23:39:41.722Z,13.65
2023-04-30T23:42:11.916Z,13.75
2023-04-30T23:44:42.062Z,13.75
2023-04-30T23:47:12.461Z,13.76
2023-04-30T23:49:44.665Z,13.62
2023-04-30T23:52:14.426Z,13.62
2023-04-30T23:54:44.351Z,13.66
2023-04-30T23:57:14.134Z,13.70
2023-04-30T23:59:43.702Z,13.69
